Time,TemperatureF,DewpointF,PressureIn,WindDirection,WindDirectionDegrees,WindSpeedMPH,WindSpeedGustMPH,Humidity,HourlyPrecipIn,Conditions,Clouds,dailyrainin,SolarRadiationWatts/m^2,SoftwareType,DateUTC
2013-05-27 00:00:00,56.8,30.8,29.67,SW,218,1.0,1.0,37,0.00,,,0.00,0,Wunderground v.1.15,2013-05-27 06:00:00,
2013-05-27 00:05:00,56.4,32.4,29.67,NNE,12,0.0,1.0,40,0.00,,,0.00,0,Wunderground v.1.15,2013-05-27 06:05:00,
2013-05-27 00:15:00,56.0,32.0,29.68,East,81,0.0,0.0,40,0.00,,,0.00,0,Wunderground v.1.15,2013-05-27 06:15:00,
2013-05-27 00:25:00,55.7,31.1,29.67,ESE,118,0.0,0.0,39,0.00,,,0.00,0,Wunderground v.1.15,2013-05-27 06:25:00,
2013-05-27 00:30:00,55.5,27.6,29.67,ESE,118,0.0,0.0,34,0.00,,,0.00,0,Wunderground v.1.15,2013-05-27 06:30:00,
2013-05-27 00:40:00,55.1,30.6,29.68,SSW,209,0.0,0.0,39,0.00,,,0.00,0,Wunderground v.1.15,2013-05-27 06:40:00,
2013-05-27 00:45:00,54.9,31.6,29.68,NW,315,0.0,2.0,41,0.00,,,0.00,0,Wunderground v.1.15,2013-05-27 06:45:00,
2013-05-27 00:55:00,54.3,30.5,29.68,East,91,0.0,0.0,40,0.00,,,0.00,0,Wunderground v.1.15,2013-05-27 06:55:00,
2013-05-27 01:00:00,54.3,29.8,29.68,East,97,0.0,0.0,39,0.00,,,0.00,0,Wunderground v.1.15,2013-05-27 07:00:00,
2013-05-27 01:10:00,53.7,29.9,29.68,East,97,0.0,4.0,40,0.00,,,0.00,0,Wunderground v.1.15,2013-05-27 07:10:00,
2013-05-27 01:15:00,53.5,31.0,29.68,East,97,0.0,4.0,42,0.00,,,0.00,0,Wunderground v.1.15,2013-05-27 07:15:00,
2013-05-27 01:20:00,53.2,28.9,29.68,East,97,0.0,4.0,39,0.00,,,0.00,0,Wunderground v.1.15,2013-05-27 07:20:00,
2013-05-27 01:30:00,52.5,28.2,29.68,East,96,0.0,4.0,39,0.00,,,0.00,0,Wunderground v.1.15,2013-05-27 07:30:00,
2013-05-27 01:40:00,52.2,28.0,29.68,East,97,0.0,4.0,39,0.00,,,0.00,0,Wunderground v.1.15,2013-05-27 07:40:00,
2013-05-27 01:45:00,52.0,28.4,29.68,East,96,0.0,4.0,40,0.00,,,0.00,0,Wunderground v.1.15,2013-05-27 07:45:00,
2013-05-27 01:55:00,51.7,27.5,29.68,East,97,0.0,4.0,39,0.00,,,0.00,0,Wunderground v.1.15,2013-05-27 07:55:00,
2013-05-27 02:05:00,51.2,27.7,29.68,East,97,0.0,4.0,40,0.00,,,0.00,0,Wunderground v.1.15,2013-05-27 08:05:00,
2013-05-27 02:15:00,50.6,28.3,29.68,East,97,0.0,4.0,42,0.00,,,0.00,0,Wunderground v.1.15,2013-05-27 08:15:00,
2013-05-27 02:25:00,50.4,28.1,29.68,East,96,0.0,4.0,42,0.00,,,0.00,0,Wunderground v.1.15,2013-05-27 08:25:00,
2013-05-27 02:30:00,50.2,26.8,29.68,East,96,0.0,4.0,40,0.00,,,0.00,0,Wunderground v.1.15,2013-05-27 08:30:00,
2013-05-27 02:40:00,49.8,27.0,29.68,East,97,0.0,4.0,41,0.00,,,0.00,0,Wunderground v.1.15,2013-05-27 08:40:00,
2013-05-27 02:45:00,49.6,28.6,29.68,East,96,0.0,4.0,44,0.00,,,0.00,0,Wunderground v.1.15,2013-05-27 08:45:00,
2013-05-27 02:55:00,49.1,27.0,29.68,East,97,0.0,4.0,42,0.00,,,0.00,0,Wunderground v.1.15,2013-05-27 08:55:00,
2013-05-27 03:05:00,48.7,27.2,29.68,East,96,0.0,4.0,43,0.00,,,0.00,0,Wunderground v.1.15,2013-05-27 09:05:00,
2013-05-27 03:15:00,48.4,27.5,29.68,East,96,0.0,0.0,44,0.00,,,0.00,0,Wunderground v.1.15,2013-05-27 09:15:00,
2013-05-27 03:20:00,48.2,27.8,29.69,East,97,0.0,0.0,45,0.00,,,0.00,0,Wunderground v.1.15,2013-05-27 09:20:00,
2013-05-27 03:30:00,47.8,28.0,29.69,East,96,0.0,0.0,46,0.00,,,0.00,0,Wunderground v.1.15,2013-05-27 09:30:00,
2013-05-27 03:35:00,47.6,27.3,29.69,East,96,0.0,0.0,45,0.00,,,0.00,0,Wunderground v.1.15,2013-05-27 09:35:00,
2013-05-27 03:45:00,47.4,28.7,29.69,East,96,0.0,0.0,48,0.00,,,0.00,0,Wunderground v.1.15,2013-05-27 09:45:00,
2013-05-27 03:55:00,47.2,29.0,29.69,East,97,0.0,0.0,49,0.00,,,0.00,0,Wunderground v.1.15,2013-05-27 09:55:00,
2013-05-27 04:05:00,46.9,29.2,29.69,East,96,0.0,0.0,50,0.00,,,0.00,0,Wunderground v.1.15,2013-05-27 10:05:00,
2013-05-27 04:15:00,46.7,28.5,29.69,East,97,0.0,0.0,49,0.00,,,0.00,0,Wunderground v.1.15,2013-05-27 10:15:00,
2013-05-27 04:25:00,46.5,28.3,29.69,East,97,0.0,0.0,49,0.00,,,0.00,0,Wunderground v.1.15,2013-05-27 10:25:00,
2013-05-27 04:30:00,46.3,28.7,29.69,East,97,0.0,0.0,50,0.00,,,0.00,0,Wunderground v.1.15,2013-05-27 10:30:00,
2013-05-27 04:35:00,46.1,29.0,29.69,East,96,0.0,0.0,51,0.00,,,0.00,0,Wunderground v.1.15,2013-05-27 10:35:00,
2013-05-27 04:45:00,45.7,28.6,29.69,East,97,0.0,0.0,51,0.00,,,0.00,0,Wunderground v.1.15,2013-05-27 10:45:00,
2013-05-27 04:55:00,45.4,28.8,29.69,East,96,0.0,0.0,52,0.00,,,0.00,0,Wunderground v.1.15,2013-05-27 10:55:00,
2013-05-27 05:05:00,45.3,28.7,29.70,East,97,0.0,0.0,52,0.00,,,0.00,0,Wunderground v.1.15,2013-05-27 11:05:00,
2013-05-27 05:10:00,45.3,28.7,29.70,East,96,0.0,0.0,52,0.00,,,0.00,0,Wunderground v.1.15,2013-05-27 11:10:00,
2013-05-27 05:15:00,45.1,28.0,29.70,East,96,0.0,0.0,51,0.00,,,0.00,0,Wunderground v.1.15,2013-05-27 11:15:00,
2013-05-27 05:25:00,44.8,28.2,29.71,East,96,0.0,0.0,52,0.00,,,0.00,0,Wunderground v.1.15,2013-05-27 11:25:00,
2013-05-27 05:30:00,44.6,27.6,29.71,East,97,0.0,0.0,51,0.00,,,0.00,0,Wunderground v.1.15,2013-05-27 11:30:00,
2013-05-27 05:40:00,44.4,28.3,29.71,East,97,0.0,0.0,53,0.00,,,0.00,0,Wunderground v.1.15,2013-05-27 11:40:00,
2013-05-27 05:50:00,44.2,28.6,29.71,East,96,0.0,0.0,54,0.00,,,0.00,5,Wunderground v.1.15,2013-05-27 11:50:00,
2013-05-27 05:55:00,44.0,28.9,29.71,East,97,0.0,0.0,55,0.00,,,0.00,7,Wunderground v.1.15,2013-05-27 11:55:00,
2013-05-27 06:00:00,44.0,29.7,29.71,East,97,0.0,0.0,57,0.00,,,0.00,9,Wunderground v.1.15,2013-05-27 12:00:00,
2013-05-27 06:05:00,44.1,29.8,29.72,East,96,0.0,0.0,57,0.00,,,0.00,12,Wunderground v.1.15,2013-05-27 12:05:00,
2013-05-27 06:15:00,44.1,29.4,29.72,East,96,0.0,0.0,56,0.00,,,0.00,16,Wunderground v.1.15,2013-05-27 12:15:00,
2013-05-27 06:25:00,44.3,29.6,29.72,East,97,0.0,0.0,56,0.00,,,0.00,19,Wunderground v.1.15,2013-05-27 12:25:00,
2013-05-27 06:30:00,44.2,29.5,29.72,East,96,0.0,0.0,56,0.00,,,0.00,21,Wunderground v.1.15,2013-05-27 12:30:00,
2013-05-27 06:35:00,44.2,29.5,29.72,East,97,0.0,0.0,56,0.00,,,0.00,23,Wunderground v.1.15,2013-05-27 12:35:00,
2013-05-27 06:40:00,44.2,29.0,29.73,East,96,0.0,0.0,55,0.00,,,0.00,25,Wunderground v.1.15,2013-05-27 12:40:00,
2013-05-27 06:50:00,44.1,29.4,29.73,East,96,0.0,0.0,56,0.00,,,0.00,28,Wunderground v.1.15,2013-05-27 12:50:00,
2013-05-27 07:00:00,44.1,28.9,29.73,East,97,0.0,0.0,55,0.00,,,0.00,32,Wunderground v.1.15,2013-05-27 13:00:00,
2013-05-27 07:05:00,44.1,28.9,29.73,East,97,0.0,1.0,55,0.00,,,0.00,33,Wunderground v.1.15,2013-05-27 13:05:00,
2013-05-27 07:15:00,44.2,29.9,29.73,East,97,0.0,1.0,57,0.00,,,0.00,123,Wunderground v.1.15,2013-05-27 13:15:00,
2013-05-27 07:25:00,45.8,31.4,29.73,East,97,0.0,1.0,57,0.00,,,0.00,225,Wunderground v.1.15,2013-05-27 13:25:00,
2013-05-27 07:35:00,47.2,31.8,29.73,East,97,0.0,1.0,55,0.00,,,0.00,255,Wunderground v.1.15,2013-05-27 13:35:00,
2013-05-27 07:40:00,47.8,31.9,29.73,East,97,0.0,1.0,54,0.00,,,0.00,271,Wunderground v.1.15,2013-05-27 13:40:00,
2013-05-27 07:50:00,49.0,29.6,29.73,East,97,0.0,1.0,47,0.00,,,0.00,302,Wunderground v.1.15,2013-05-27 13:50:00,
2013-05-27 08:00:00,50.5,29.9,29.72,East,96,0.0,1.0,45,0.00,,,0.00,336,Wunderground v.1.15,2013-05-27 14:00:00,
2013-05-27 08:10:00,51.8,30.0,29.72,East,96,0.0,1.0,43,0.00,,,0.00,366,Wunderground v.1.15,2013-05-27 14:10:00,
2013-05-27 08:15:00,52.2,31.5,29.72,East,96,0.0,1.0,45,0.00,,,0.00,381,Wunderground v.1.15,2013-05-27 14:15:00,
2013-05-27 08:25:00,52.8,29.7,29.72,East,96,0.0,1.0,41,0.00,,,0.00,415,Wunderground v.1.15,2013-05-27 14:25:00,
2013-05-27 08:30:00,53.5,31.5,29.72,East,96,0.0,1.0,43,0.00,,,0.00,431,Wunderground v.1.15,2013-05-27 14:30:00,
2013-05-27 08:35:00,53.9,30.7,29.72,East,97,0.0,1.0,41,0.00,,,0.00,443,Wunderground v.1.15,2013-05-27 14:35:00,
2013-05-27 08:40:00,54.5,31.3,29.71,East,95,0.0,1.0,41,0.00,,,0.00,459,Wunderground v.1.15,2013-05-27 14:40:00,
2013-05-27 08:50:00,55.9,34.3,29.71,East,97,0.0,1.0,44,0.00,,,0.00,490,Wunderground v.1.15,2013-05-27 14:50:00,
2013-05-27 08:55:00,57.1,32.4,29.71,East,96,0.0,1.0,39,0.00,,,0.00,504,Wunderground v.1.15,2013-05-27 14:55:00,
2013-05-27 09:00:00,57.8,31.7,29.71,East,96,0.0,1.0,37,0.00,,,0.00,520,Wunderground v.1.15,2013-05-27 15:00:00,
2013-05-27 09:05:00,58.4,32.9,29.70,East,96,0.0,1.0,38,0.00,,,0.00,536,Wunderground v.1.15,2013-05-27 15:05:00,
2013-05-27 09:15:00,59.0,29.9,29.70,East,95,0.0,0.0,33,0.00,,,0.00,564,Wunderground v.1.15,2013-05-27 15:15:00,
2013-05-27 09:20:00,59.3,30.2,29.70,East,97,0.0,0.0,33,0.00,,,0.00,578,Wunderground v.1.15,2013-05-27 15:20:00,
2013-05-27 09:30:00,61.0,29.3,29.69,East,100,0.0,0.0,30,0.00,,,0.00,610,Wunderground v.1.15,2013-05-27 15:30:00,
2013-05-27 09:35:00,61.3,26.1,29.69,East,100,1.0,2.0,26,0.00,,,0.00,624,Wunderground v.1.15,2013-05-27 15:35:00,
2013-05-27 09:40:00,61.8,28.3,29.69,ESE,102,1.0,1.0,28,0.00,,,0.00,636,Wunderground v.1.15,2013-05-27 15:40:00,
2013-05-27 09:45:00,62.5,27.1,29.69,East,101,0.0,1.0,26,0.00,,,0.00,652,Wunderground v.1.15,2013-05-27 15:45:00,
2013-05-27 09:55:00,63.6,26.1,29.68,East,101,0.0,0.0,24,0.00,,,0.00,677,Wunderground v.1.15,2013-05-27 15:55:00,
2013-05-27 10:05:00,64.8,27.1,29.67,ESE,102,0.0,2.0,24,0.00,,,0.00,705,Wunderground v.1.15,2013-05-27 16:05:00,
2013-05-27 10:10:00,65.2,25.4,29.67,ESE,102,0.0,1.0,22,0.00,,,0.00,717,Wunderground v.1.15,2013-05-27 16:10:00,
2013-05-27 10:15:00,66.0,28.1,29.67,ESE,102,0.0,1.0,24,0.00,,,0.00,728,Wunderground v.1.15,2013-05-27 16:15:00,
2013-05-27 10:20:00,67.0,24.6,29.67,ESE,102,0.0,2.0,20,0.00,,,0.00,742,Wunderground v.1.15,2013-05-27 16:20:00,
2013-05-27 10:25:00,67.7,23.9,29.67,SE,131,0.0,2.0,19,0.00,,,0.00,752,Wunderground v.1.15,2013-05-27 16:25:00,
2013-05-27 10:35:00,69.5,26.6,29.66,SW,225,1.0,4.0,20,0.00,,,0.00,777,Wunderground v.1.15,2013-05-27 16:35:00,
2013-05-27 10:45:00,70.5,26.2,29.66,SW,225,2.0,4.0,19,0.00,,,0.00,800,Wunderground v.1.15,2013-05-27 16:45:00,
2013-05-27 10:50:00,71.2,24.1,29.66,SW,221,1.0,2.0,17,0.00,,,0.00,810,Wunderground v.1.15,2013-05-27 16:50:00,
2013-05-27 11:00:00,72.1,26.2,29.65,SSW,196,1.0,4.0,18,0.00,,,0.00,828,Wunderground v.1.15,2013-05-27 17:00:00,
2013-05-27 11:05:00,71.5,21.4,29.65,WSW,251,2.0,4.0,15,0.00,,,0.00,837,Wunderground v.1.15,2013-05-27 17:05:00,
2013-05-27 11:10:00,72.1,21.9,29.65,South,184,2.0,2.0,15,0.00,,,0.00,849,Wunderground v.1.15,2013-05-27 17:10:00,
2013-05-27 11:15:00,71.6,23.0,29.65,SW,217,2.0,2.0,16,0.00,,,0.00,856,Wunderground v.1.15,2013-05-27 17:15:00,
2013-05-27 11:25:00,72.9,24.0,29.65,SW,221,1.0,2.0,16,0.00,,,0.00,877,Wunderground v.1.15,2013-05-27 17:25:00,
2013-05-27 11:35:00,73.2,24.3,29.65,SSW,194,1.0,2.0,16,0.00,,,0.00,895,Wunderground v.1.15,2013-05-27 17:35:00,
2013-05-27 11:40:00,73.8,23.2,29.64,SSW,197,1.0,1.0,15,0.00,,,0.00,898,Wunderground v.1.15,2013-05-27 17:40:00,
2013-05-27 11:45:00,73.3,21.2,29.64,South,179,2.0,3.0,14,0.00,,,0.00,900,Wunderground v.1.15,2013-05-27 17:45:00,
2013-05-27 11:50:00,73.2,21.1,29.64,ENE,58,2.0,2.0,14,0.00,,,0.00,911,Wunderground v.1.15,2013-05-27 17:50:00,
2013-05-27 11:55:00,73.0,24.1,29.64,SW,223,2.0,5.0,16,0.00,,,0.00,918,Wunderground v.1.15,2013-05-27 17:55:00,
2013-05-27 12:05:00,72.6,23.8,29.63,SW,234,5.0,5.0,16,0.00,,,0.00,928,Wunderground v.1.15,2013-05-27 18:05:00,
2013-05-27 12:15:00,74.2,21.9,29.63,SSE,158,1.0,4.0,14,0.00,,,0.00,940,Wunderground v.1.15,2013-05-27 18:15:00,
2013-05-27 12:25:00,74.2,23.5,29.62,SW,236,3.0,3.0,15,0.00,,,0.00,963,Wunderground v.1.15,2013-05-27 18:25:00,
2013-05-27 12:30:00,73.9,21.7,29.62,South,169,3.0,3.0,14,0.00,,,0.00,998,Wunderground v.1.15,2013-05-27 18:30:00,
2013-05-27 12:40:00,75.3,26.0,29.62,SW,231,2.0,2.0,16,0.00,,,0.00,1014,Wunderground v.1.15,2013-05-27 18:40:00,
2013-05-27 12:50:00,74.5,22.1,29.61,SSE,157,3.0,6.0,14,0.00,,,0.00,914,Wunderground v.1.15,2013-05-27 18:50:00,
2013-05-27 13:00:00,75.0,24.2,29.61,West,272,4.0,4.0,15,0.00,,,0.00,986,Wunderground v.1.15,2013-05-27 19:00:00,
2013-05-27 13:10:00,74.2,25.1,29.60,SW,214,3.0,8.0,16,0.00,,,0.00,962,Wunderground v.1.15,2013-05-27 19:10:00,
2013-05-27 13:20:00,75.8,21.4,29.60,SSE,158,3.0,8.0,13,0.00,,,0.00,967,Wunderground v.1.15,2013-05-27 19:20:00,
2013-05-27 13:30:00,75.5,22.9,29.60,WSW,248,5.0,9.0,14,0.00,,,0.00,963,Wunderground v.1.15,2013-05-27 19:30:00,
2013-05-27 13:35:00,76.2,21.7,29.60,South,179,5.0,9.0,13,0.00,,,0.00,969,Wunderground v.1.15,2013-05-27 19:35:00,
2013-05-27 13:45:00,75.3,21.0,29.60,SW,214,7.0,7.0,13,0.00,,,0.00,967,Wunderground v.1.15,2013-05-27 19:45:00,
2013-05-27 13:55:00,75.8,19.5,29.59,SW,231,5.0,8.0,12,0.00,,,0.00,960,Wunderground v.1.15,2013-05-27 19:55:00,
2013-05-27 14:00:00,76.3,21.8,29.59,SW,227,3.0,3.0,13,0.00,,,0.00,962,Wunderground v.1.15,2013-05-27 20:00:00,
2013-05-27 14:10:00,76.7,22.1,29.59,WSW,237,4.0,4.0,13,0.00,,,0.00,958,Wunderground v.1.15,2013-05-27 20:10:00,
2013-05-27 14:20:00,77.8,23.0,29.59,SSE,163,3.0,3.0,13,0.00,,,0.00,953,Wunderground v.1.15,2013-05-27 20:20:00,
2013-05-27 14:30:00,76.9,20.4,29.58,SSE,167,4.0,4.0,12,0.00,,,0.00,947,Wunderground v.1.15,2013-05-27 20:30:00,
2013-05-27 14:40:00,76.2,19.8,29.58,SSE,162,3.0,3.0,12,0.00,,,0.00,930,Wunderground v.1.15,2013-05-27 20:40:00,
2013-05-27 14:50:00,77.4,22.7,29.58,SSW,192,4.0,8.0,13,0.00,,,0.00,914,Wunderground v.1.15,2013-05-27 20:50:00,
2013-05-27 15:00:00,77.6,26.3,29.57,SSW,208,4.0,8.0,15,0.00,,,0.00,905,Wunderground v.1.15,2013-05-27 21:00:00,
2013-05-27 15:05:00,76.6,22.0,29.58,SW,233,6.0,8.0,13,0.00,,,0.00,891,Wunderground v.1.15,2013-05-27 21:05:00,
2013-05-27 15:15:00,77.8,21.1,29.57,NW,308,5.0,9.0,12,0.00,,,0.00,872,Wunderground v.1.15,2013-05-27 21:15:00,
2013-05-27 15:25:00,77.6,24.6,29.57,South,181,4.0,4.0,14,0.00,,,0.00,853,Wunderground v.1.15,2013-05-27 21:25:00,
2013-05-27 15:30:00,77.8,21.1,29.57,SE,142,4.0,4.0,12,0.00,,,0.00,840,Wunderground v.1.15,2013-05-27 21:30:00,
2013-05-27 15:35:00,78.1,21.3,29.57,NW,315,5.0,5.0,12,0.00,,,0.00,831,Wunderground v.1.15,2013-05-27 21:35:00,
2013-05-27 15:45:00,77.0,22.4,29.57,West,270,3.0,3.0,13,0.00,,,0.00,805,Wunderground v.1.15,2013-05-27 21:45:00,
2013-05-27 15:55:00,78.2,25.1,29.56,SSE,158,2.0,4.0,14,0.00,,,0.00,789,Wunderground v.1.15,2013-05-27 21:55:00,
2013-05-27 16:05:00,77.1,20.5,29.55,SSW,212,4.0,6.0,12,0.00,,,0.00,777,Wunderground v.1.15,2013-05-27 22:05:00,
2013-05-27 16:10:00,77.6,22.8,29.55,SW,222,4.0,14.0,13,0.00,,,0.00,768,Wunderground v.1.15,2013-05-27 22:10:00,
2013-05-27 16:20:00,77.6,20.9,29.55,SSW,204,3.0,14.0,12,0.00,,,0.00,742,Wunderground v.1.15,2013-05-27 22:20:00,
2013-05-27 16:30:00,77.6,20.9,29.55,West,272,3.0,3.0,12,0.00,,,0.00,733,Wunderground v.1.15,2013-05-27 22:30:00,
2013-05-27 16:35:00,78.5,23.5,29.55,SSE,149,3.0,14.0,13,0.00,,,0.00,700,Wunderground v.1.15,2013-05-27 22:35:00,
2013-05-27 16:45:00,78.4,21.5,29.54,SW,218,2.0,6.0,12,0.00,,,0.00,668,Wunderground v.1.15,2013-05-27 22:45:00,
2013-05-27 16:55:00,77.6,22.8,29.54,NW,320,5.0,14.0,13,0.00,,,0.00,638,Wunderground v.1.15,2013-05-27 22:55:00,
2013-05-27 17:05:00,77.6,22.8,29.54,SW,232,5.0,13.0,13,0.00,,,0.00,102,Wunderground v.1.15,2013-05-27 23:05:00,
2013-05-27 17:10:00,77.3,20.7,29.53,SSW,208,6.0,14.0,12,0.00,,,0.00,128,Wunderground v.1.15,2013-05-27 23:10:00,
2013-05-27 17:20:00,77.0,20.5,29.53,SSW,199,5.0,14.0,12,0.00,,,0.00,88,Wunderground v.1.15,2013-05-27 23:20:00,
2013-05-27 17:30:00,77.5,24.5,29.53,SSE,153,5.0,5.0,14,0.00,,,0.00,74,Wunderground v.1.15,2013-05-27 23:30:00,
2013-05-27 17:35:00,78.0,21.2,29.53,SSE,166,4.0,14.0,12,0.00,,,0.00,76,Wunderground v.1.15,2013-05-27 23:35:00,